createdAt,value
2018-05-02T00:02:26.128Z,9.23
2018-05-02T00:04:54.493Z,9.26
2018-05-02T00:07:22.666Z,9.28
2018-05-02T00:09:50.840Z,9.27
2018-05-02T00:12:19.038Z,9.23
2018-05-02T00:14:47.207Z,9.22
2018-05-02T00:17:15.373Z,9.16
2018-05-02T00:19:43.572Z,9.09
2018-05-02T00:22:11.757Z,9.04
2018-05-02T00:24:39.936Z,9.02
2018-05-02T00:27:08.152Z,8.98
2018-05-02T00:29:36.306Z,8.93
2018-05-02T00:32:04.484Z,8.88
2018-05-02T00:34:32.649Z,8.85
2018-05-02T00:37:00.830Z,8.85
2018-05-02T00:39:28.978Z,8.85
2018-05-02T00:41:57.223Z,8.80
2018-05-02T00:44:25.387Z,8.78
2018-05-02T00:46:53.575Z,8.73
2018-05-02T00:49:21.725Z,8.71
2018-05-02T00:51:49.907Z,8.70
2018-05-02T00:54:18.079Z,8.67
2018-05-02T00:56:46.261Z,8.66
2018-05-02T00:59:14.705Z,8.61
2018-05-02T01:01:42.866Z,8.59
2018-05-02T01:04:11.018Z,8.60
2018-05-02T01:06:39.166Z,8.54
2018-05-02T01:09:07.579Z,8.51
2018-05-02T01:11:35.736Z,8.52
2018-05-02T01:14:03.879Z,8.50
2018-05-02T01:16:32.072Z,8.50
2018-05-02T01:19:00.244Z,8.47
2018-05-02T01:21:28.423Z,8.44
2018-05-02T01:23:56.631Z,8.43
2018-05-02T01:26:25.141Z,8.42
2018-05-02T01:28:53.311Z,8.40
2018-05-02T01:31:21.526Z,8.40
2018-05-02T01:33:49.693Z,8.34
2018-05-02T01:36:17.879Z,8.34
2018-05-02T01:38:46.034Z,8.35
2018-05-02T01:41:14.198Z,8.32
2018-05-02T01:43:42.372Z,8.27
2018-05-02T01:46:10.554Z,8.23
2018-05-02T01:48:38.778Z,8.22
2018-05-02T01:51:06.951Z,8.17
2018-05-02T01:53:35.128Z,8.14
2018-05-02T01:56:03.350Z,8.13
2018-05-02T01:58:31.524Z,8.13
2018-05-02T02:00:59.692Z,8.09
2018-05-02T02:03:27.887Z,8.05
2018-05-02T02:05:56.060Z,8.01
2018-05-02T02:08:24.221Z,7.96
2018-05-02T02:10:52.439Z,7.94
2018-05-02T02:13:20.620Z,7.91
2018-05-02T02:15:48.786Z,7.90
2018-05-02T02:18:16.942Z,7.89
2018-05-02T02:20:45.122Z,7.87
2018-05-02T02:23:13.285Z,7.84
2018-05-02T02:25:41.614Z,7.84
2018-05-02T02:28:09.796Z,7.82
2018-05-02T02:30:37.978Z,7.78
2018-05-02T02:33:06.116Z,7.75
2018-05-02T02:35:34.302Z,7.75
2018-05-02T02:38:02.489Z,7.71
2018-05-02T02:40:30.975Z,7.69
2018-05-02T02:42:59.168Z,7.68
2018-05-02T02:45:27.338Z,7.68
2018-05-02T02:47:55.522Z,7.69
2018-05-02T02:50:23.680Z,7.69
2018-05-02T02:52:51.873Z,7.68
2018-05-02T02:55:20.086Z,7.69
2018-05-02T02:57:48.298Z,7.76
2018-05-02T03:00:16.452Z,7.85
2018-05-02T03:02:44.641Z,7.84
2018-05-02T03:05:12.854Z,7.80
2018-05-02T03:07:41.007Z,7.76
2018-05-02T03:10:09.192Z,7.76
2018-05-02T03:12:37.340Z,7.76
2018-05-02T03:15:05.542Z,7.74
2018-05-02T03:17:33.743Z,7.78
2018-05-02T03:20:01.937Z,7.77
2018-05-02T03:22:30.128Z,7.76
2018-05-02T03:24:58.320Z,7.75
2018-05-02T03:27:26.508Z,7.76
2018-05-02T03:29:54.665Z,7.74
2018-05-02T03:32:22.864Z,7.76
2018-05-02T03:34:51.009Z,7.77
2018-05-02T03:37:19.275Z,7.77
2018-05-02T03:39:47.447Z,7.77
2018-05-02T03:42:15.648Z,7.76
2018-05-02T03:44:43.810Z,7.73
2018-05-02T03:47:11.978Z,7.73
2018-05-02T03:49:40.126Z,7.72
2018-05-02T03:52:08.285Z,7.70
2018-05-02T03:54:36.494Z,7.68
2018-05-02T03:57:04.647Z,7.66
2018-05-02T04:00:10.268Z,7.67
2018-05-02T04:03:38.306Z,7.70
2018-05-02T04:06:44.825Z,7.70
2018-05-02T04:09:13.045Z,7.72
2018-05-02T04:11:41.221Z,7.74
2018-05-02T04:14:09.383Z,7.75
2018-05-02T04:16:37.561Z,7.73
2018-05-02T04:19:05.874Z,7.69
2018-05-02T04:21:34.028Z,7.65
2018-05-02T04:24:02.187Z,7.65
2018-05-02T04:26:30.379Z,7.68
2018-05-02T04:28:58.553Z,7.75
2018-05-02T04:31:26.757Z,7.75
2018-05-02T04:33:54.916Z,7.80
2018-05-02T04:36:23.089Z,7.83
2018-05-02T04:38:51.230Z,7.86
2018-05-02T04:41:19.401Z,7.90
2018-05-02T04:43:47.574Z,7.90
2018-05-02T04:46:15.750Z,7.88
2018-05-02T04:48:43.902Z,7.91
2018-05-02T04:51:12.196Z,7.96
2018-05-02T04:53:40.574Z,7.98
2018-05-02T04:56:08.779Z,8.01
2018-05-02T04:58:36.918Z,8.04
2018-05-02T05:01:05.077Z,8.09
2018-05-02T05:03:33.487Z,8.15
2018-05-02T05:06:01.696Z,8.21
2018-05-02T05:08:29.907Z,8.19
2018-05-02T05:10:58.096Z,8.24
2018-05-02T05:13:26.246Z,8.27
2018-05-02T05:15:54.405Z,8.32
2018-05-02T05:18:22.597Z,8.34
2018-05-02T05:20:50.767Z,8.37
2018-05-02T05:23:18.948Z,8.42
2018-05-02T05:25:47.360Z,8.48
2018-05-02T05:28:15.591Z,8.55
2018-05-02T05:30:43.706Z,8.56
2018-05-02T05:33:11.886Z,8.66
2018-05-02T05:35:40.058Z,8.67
2018-05-02T05:38:08.311Z,8.69
2018-05-02T05:40:36.480Z,8.76
2018-05-02T05:43:04.667Z,8.78
2018-05-02T05:45:32.843Z,8.80
2018-05-02T05:48:01.029Z,8.88
2018-05-02T05:50:29.183Z,8.93
2018-05-02T05:52:57.344Z,8.97
2018-05-02T05:55:25.522Z,9.00
2018-05-02T05:57:53.683Z,9.10
2018-05-02T06:00:21.866Z,9.16
2018-05-02T06:02:50.323Z,9.41
2018-05-02T06:05:18.487Z,9.73
2018-05-02T06:07:46.679Z,10.07
2018-05-02T06:10:14.837Z,10.18
2018-05-02T06:12:43.185Z,10.20
2018-05-02T06:15:11.316Z,10.22
2018-05-02T06:17:39.480Z,10.24
2018-05-02T06:20:07.652Z,10.33
2018-05-02T06:22:35.822Z,10.49
2018-05-02T06:25:04.076Z,10.71
2018-05-02T06:27:32.229Z,11.51
2018-05-02T06:30:00.416Z,11.68
2018-05-02T06:32:28.591Z,11.65
2018-05-02T06:34:56.775Z,11.71
2018-05-02T06:37:24.969Z,11.98
2018-05-02T06:39:53.164Z,12.32
2018-05-02T06:42:21.338Z,12.77
2018-05-02T06:44:49.528Z,14.19
2018-05-02T06:47:17.688Z,16.03
2018-05-02T06:49:45.894Z,17.47
2018-05-02T06:52:14.040Z,18.61
2018-05-02T06:54:42.293Z,19.68
2018-05-02T06:57:10.369Z,20.81
2018-05-02T06:59:38.609Z,22.05
2018-05-02T07:02:06.860Z,22.91
2018-05-02T07:04:34.956Z,23.56
2018-05-02T07:07:03.363Z,23.88
2018-05-02T07:09:31.473Z,24.35
2018-05-02T07:12:00.702Z,24.93
2018-05-02T07:14:29.235Z,25.64
2018-05-02T07:16:57.966Z,26.13
2018-05-02T07:19:26.949Z,26.40
2018-05-02T07:21:55.367Z,26.74
2018-05-02T07:24:24.407Z,26.96
2018-05-02T07:26:54.598Z,26.78
2018-05-02T07:29:23.498Z,26.08
2018-05-02T07:31:51.724Z,26.93
2018-05-02T07:34:19.937Z,26.44
2018-05-02T07:36:48.123Z,26.88
2018-05-02T07:39:16.427Z,26.61
2018-05-02T07:41:44.730Z,27.08
2018-05-02T07:44:12.971Z,27.55
2018-05-02T07:46:41.373Z,27.64
2018-05-02T07:49:09.724Z,27.85
2018-05-02T07:51:37.956Z,27.96
2018-05-02T07:54:06.144Z,26.64
2018-05-02T07:56:34.914Z,27.34
2018-05-02T07:59:03.135Z,27.62
2018-05-02T08:01:31.425Z,26.43
2018-05-02T08:04:00.047Z,27.53
2018-05-02T08:06:28.270Z,28.05
2018-05-02T08:08:56.472Z,27.93
2018-05-02T08:11:24.655Z,26.99
2018-05-02T08:13:53.598Z,27.25
2018-05-02T08:16:21.846Z,25.95
2018-05-02T08:18:49.985Z,25.54
2018-05-02T08:21:18.162Z,25.95
2018-05-02T08:23:49.077Z,26.66
2018-05-02T08:26:17.228Z,26.61
2018-05-02T08:28:45.411Z,27.37
2018-05-02T08:31:14.160Z,27.45
2018-05-02T08:33:42.370Z,27.65
2018-05-02T08:36:10.579Z,25.22
2018-05-02T08:38:38.864Z,26.17
2018-05-02T08:41:07.058Z,26.76
2018-05-02T08:43:35.254Z,27.38
2018-05-02T08:46:03.418Z,26.95
2018-05-02T08:48:31.620Z,25.88
2018-05-02T08:50:59.780Z,26.30
2018-05-02T08:53:28.031Z,25.83
2018-05-02T08:55:56.334Z,27.15
2018-05-02T08:58:24.564Z,27.23
2018-05-02T09:00:52.786Z,25.73
2018-05-02T09:03:20.943Z,25.31
2018-05-02T09:05:49.094Z,27.28
2018-05-02T09:08:17.273Z,27.61
2018-05-02T09:10:45.444Z,28.20
2018-05-02T09:13:13.806Z,26.88
2018-05-02T09:15:42.012Z,28.03
2018-05-02T09:18:10.192Z,27.57
2018-05-02T09:20:38.377Z,26.33
2018-05-02T09:23:06.554Z,24.45
2018-05-02T09:25:35.073Z,23.88
2018-05-02T09:28:09.664Z,22.95
2018-05-02T09:30:38.349Z,20.06
2018-05-02T09:33:06.509Z,20.72
2018-05-02T09:35:34.698Z,18.95
2018-05-02T09:38:02.901Z,19.36
2018-05-02T09:40:31.041Z,19.21
2018-05-02T09:43:00.485Z,18.66
2018-05-02T09:45:30.484Z,19.28
2018-05-02T09:47:58.591Z,19.91
2018-05-02T09:50:26.854Z,21.79
2018-05-02T09:52:54.999Z,22.88
2018-05-02T09:55:23.158Z,22.87
2018-05-02T09:57:51.676Z,21.82
2018-05-02T10:00:20.294Z,21.91
2018-05-02T10:02:48.530Z,21.82
2018-05-02T10:05:16.701Z,19.65
2018-05-02T10:07:44.879Z,19.51
2018-05-02T10:10:13.048Z,19.29
2018-05-02T10:12:41.236Z,19.26
2018-05-02T10:15:09.426Z,18.29
2018-05-02T10:17:37.707Z,20.35
2018-05-02T10:20:06.288Z,22.05
2018-05-02T10:22:34.549Z,21.73
2018-05-02T10:25:02.719Z,21.18
2018-05-02T10:27:30.925Z,20.77
2018-05-02T10:29:59.077Z,21.69
2018-05-02T10:32:27.327Z,22.35
2018-05-02T10:34:55.585Z,22.55
2018-05-02T10:37:23.907Z,22.26
2018-05-02T10:39:52.186Z,21.91
2018-05-02T10:42:20.352Z,22.09
2018-05-02T10:44:48.527Z,22.48
2018-05-02T10:47:16.741Z,22.22
2018-05-02T10:49:44.902Z,23.42
2018-05-02T10:52:13.091Z,23.48
2018-05-02T10:54:42.867Z,24.70
2018-05-02T10:57:11.063Z,24.33
2018-05-02T10:59:39.260Z,25.72
2018-05-02T11:02:07.628Z,25.73
2018-05-02T11:04:35.803Z,24.61
2018-05-02T11:07:04.097Z,24.08
2018-05-02T11:09:32.264Z,24.95
2018-05-02T11:12:00.467Z,25.08
2018-05-02T11:14:28.675Z,25.68
2018-05-02T11:16:56.849Z,24.83
2018-05-02T11:19:25.436Z,23.99
2018-05-02T11:21:53.679Z,22.90
2018-05-02T11:24:21.761Z,23.28
2018-05-02T11:26:49.950Z,22.47
2018-05-02T11:29:18.150Z,22.66
2018-05-02T11:31:46.335Z,22.64
2018-05-02T11:34:14.504Z,22.57
2018-05-02T11:36:42.694Z,21.91
2018-05-02T11:39:10.866Z,22.51
2018-05-02T11:41:39.030Z,23.72
2018-05-02T11:44:07.189Z,22.79
2018-05-02T11:46:35.350Z,21.15
2018-05-02T11:49:03.537Z,20.40
2018-05-02T11:51:31.729Z,21.09
2018-05-02T11:53:59.894Z,20.95
2018-05-02T11:56:28.179Z,21.17
2018-05-02T11:58:56.430Z,21.12
2018-05-02T12:01:24.809Z,20.94
2018-05-02T12:03:53.324Z,21.03
2018-05-02T12:06:21.555Z,20.71
2018-05-02T12:08:49.791Z,20.67
2018-05-02T12:11:18.018Z,20.51
2018-05-02T12:13:46.455Z,20.58
2018-05-02T12:16:14.585Z,20.47
2018-05-02T12:18:42.753Z,20.70
2018-05-02T12:21:10.922Z,20.58
2018-05-02T12:23:39.095Z,19.80
2018-05-02T12:26:07.281Z,20.27
2018-05-02T12:28:35.463Z,20.49
2018-05-02T12:31:03.617Z,20.57
2018-05-02T12:33:31.819Z,20.83
2018-05-02T12:35:59.959Z,20.74
2018-05-02T12:38:28.489Z,20.32
2018-05-02T12:40:56.761Z,20.27
2018-05-02T12:43:24.925Z,20.30
2018-05-02T12:45:53.208Z,20.49
2018-05-02T12:48:21.433Z,19.77
2018-05-02T12:50:49.654Z,19.98
2018-05-02T12:53:17.893Z,20.26
2018-05-02T12:55:46.921Z,20.35
2018-05-02T12:58:15.300Z,20.28
2018-05-02T13:00:43.581Z,20.51
2018-05-02T13:03:11.989Z,20.19
2018-05-02T13:05:40.171Z,20.48
2018-05-02T13:08:08.443Z,20.12
2018-05-02T13:10:36.619Z,20.59
2018-05-02T13:13:04.790Z,20.32
2018-05-02T13:15:32.985Z,19.85
2018-05-02T13:18:01.144Z,19.79
2018-05-02T13:20:29.316Z,19.87
2018-05-02T13:22:57.465Z,20.24
2018-05-02T13:25:25.657Z,19.85
2018-05-02T13:27:53.850Z,20.29
2018-05-02T13:30:22.037Z,20.06
2018-05-02T13:32:50.181Z,20.11
2018-05-02T13:35:18.362Z,20.24
2018-05-02T13:37:46.543Z,20.09
2018-05-02T13:40:14.710Z,19.59
2018-05-02T13:42:42.870Z,19.02
2018-05-02T13:45:11.145Z,19.63
2018-05-02T13:47:39.320Z,19.94
2018-05-02T13:50:07.509Z,19.90
2018-05-02T13:52:35.653Z,19.22
2018-05-02T13:55:03.831Z,19.43
2018-05-02T13:57:32.004Z,19.55
2018-05-02T14:00:00.272Z,19.83
2018-05-02T14:02:28.465Z,19.80
2018-05-02T14:04:56.719Z,20.07
2018-05-02T14:07:24.880Z,19.45
2018-05-02T14:09:53.030Z,20.09
2018-05-02T14:12:21.420Z,20.05
2018-05-02T14:14:49.671Z,20.13
2018-05-02T14:17:17.873Z,19.85
2018-05-02T14:19:46.333Z,19.78
2018-05-02T14:22:14.491Z,19.79
2018-05-02T14:24:42.997Z,19.47
2018-05-02T14:27:13.122Z,19.64
2018-05-02T14:29:41.328Z,19.82
2018-05-02T14:32:09.580Z,19.84
2018-05-02T14:34:37.856Z,20.04
2018-05-02T14:37:05.998Z,19.81
2018-05-02T14:39:34.243Z,19.92
2018-05-02T14:42:02.492Z,19.72
2018-05-02T14:44:30.694Z,19.78
2018-05-02T14:46:58.871Z,20.01
2018-05-02T14:49:27.052Z,19.61
2018-05-02T14:51:55.220Z,19.83
2018-05-02T14:54:23.365Z,19.64
2018-05-02T14:56:51.553Z,19.69
2018-05-02T14:59:20.528Z,19.61
2018-05-02T15:01:48.720Z,19.58
2018-05-02T15:04:16.917Z,19.64
2018-05-02T15:06:45.074Z,19.76
2018-05-02T15:09:13.260Z,19.75
2018-05-02T15:11:41.435Z,19.80
2018-05-02T15:14:09.620Z,19.72
2018-05-02T15:16:37.782Z,19.39
2018-05-02T15:19:06.029Z,19.33
2018-05-02T15:21:34.200Z,19.30
2018-05-02T15:24:02.410Z,19.58
2018-05-02T15:26:30.574Z,19.68
2018-05-02T15:28:58.748Z,19.55
2018-05-02T15:31:26.905Z,19.46
2018-05-02T15:33:55.068Z,19.82
2018-05-02T15:36:23.233Z,19.71
2018-05-02T15:38:51.407Z,19.72
2018-05-02T15:41:19.571Z,19.61
2018-05-02T15:43:47.766Z,19.62
2018-05-02T15:46:15.907Z,19.74
2018-05-02T15:48:44.061Z,19.64
2018-05-02T15:51:12.236Z,19.61
2018-05-02T15:53:40.399Z,19.72
2018-05-02T15:56:09.264Z,19.62
2018-05-02T15:58:37.391Z,19.46
2018-05-02T16:01:05.587Z,19.34
2018-05-02T16:03:33.744Z,19.39
2018-05-02T16:06:01.914Z,19.45
2018-05-02T16:08:30.109Z,19.48
2018-05-02T16:10:58.314Z,19.21
2018-05-02T16:13:26.474Z,18.91
2018-05-02T16:15:54.634Z,19.15
2018-05-02T16:18:22.832Z,19.02
2018-05-02T16:20:51.045Z,19.31
2018-05-02T16:23:19.154Z,18.95
2018-05-02T16:25:47.317Z,18.86
2018-05-02T16:28:15.521Z,19.14
2018-05-02T16:30:43.705Z,19.31
2018-05-02T16:33:11.997Z,19.41
2018-05-02T16:35:40.436Z,19.07
2018-05-02T16:38:08.610Z,19.10
2018-05-02T16:40:36.776Z,19.26
2018-05-02T16:43:04.968Z,19.26
2018-05-02T16:45:33.158Z,19.09
2018-05-02T16:48:01.317Z,19.03
2018-05-02T16:50:29.562Z,19.18
2018-05-02T16:52:57.741Z,19.15
2018-05-02T16:55:25.942Z,19.02
2018-05-02T16:57:54.266Z,19.08
2018-05-02T17:00:22.437Z,18.97
2018-05-02T17:02:50.579Z,19.00
2018-05-02T17:05:18.767Z,18.64
2018-05-02T17:07:46.944Z,18.87
2018-05-02T17:10:15.103Z,18.90
2018-05-02T17:12:43.252Z,18.86
2018-05-02T17:15:11.402Z,18.68
2018-05-02T17:17:39.577Z,18.70
2018-05-02T17:20:07.751Z,18.63
2018-05-02T17:22:35.943Z,18.49
2018-05-02T17:25:04.124Z,18.16
2018-05-02T17:27:32.313Z,18.12
2018-05-02T17:30:00.581Z,18.03
2018-05-02T17:32:28.637Z,18.04
2018-05-02T17:34:56.790Z,18.00
2018-05-02T17:37:24.992Z,17.91
2018-05-02T17:39:53.124Z,17.93
2018-05-02T17:42:21.268Z,17.94
2018-05-02T17:44:49.468Z,17.90
2018-05-02T17:47:17.654Z,17.82
2018-05-02T17:49:46.127Z,17.77
2018-05-02T17:52:14.328Z,17.77
2018-05-02T17:54:42.486Z,17.75
2018-05-02T17:57:10.692Z,17.77
2018-05-02T17:59:38.870Z,17.76
2018-05-02T18:02:07.020Z,17.82
2018-05-02T18:04:35.201Z,17.79
2018-05-02T18:07:03.358Z,17.86
2018-05-02T18:09:31.539Z,17.73
2018-05-02T18:11:59.730Z,17.77
2018-05-02T18:14:27.919Z,17.79
2018-05-02T18:16:56.146Z,17.78
2018-05-02T18:19:24.309Z,17.82
2018-05-02T18:21:52.498Z,17.74
2018-05-02T18:24:20.685Z,17.73
2018-05-02T18:26:48.886Z,17.76
2018-05-02T18:29:17.073Z,17.72
2018-05-02T18:31:45.368Z,17.71
2018-05-02T18:34:13.518Z,17.73
2018-05-02T18:36:41.685Z,17.65
2018-05-02T18:39:09.853Z,17.62
2018-05-02T18:41:38.007Z,17.50
2018-05-02T18:44:06.209Z,17.59
2018-05-02T18:46:34.392Z,17.56
2018-05-02T18:49:02.539Z,17.54
2018-05-02T18:51:30.700Z,17.41
2018-05-02T18:53:58.856Z,17.35
2018-05-02T18:56:27.029Z,17.39
2018-05-02T18:58:55.201Z,17.30
2018-05-02T19:01:23.372Z,17.38
2018-05-02T19:03:51.618Z,17.25
2018-05-02T19:06:19.707Z,17.32
2018-05-02T19:08:47.873Z,17.01
2018-05-02T19:11:16.048Z,17.25
2018-05-02T19:14:01.322Z,17.28
2018-05-02T19:16:29.506Z,17.30
2018-05-02T19:19:15.626Z,17.27
2018-05-02T19:21:43.825Z,17.29
2018-05-02T19:24:11.979Z,17.20
2018-05-02T19:26:40.318Z,17.22
2018-05-02T19:29:08.533Z,17.17
2018-05-02T19:31:55.826Z,17.11
2018-05-02T19:34:24.009Z,17.07
2018-05-02T19:36:52.200Z,17.02
2018-05-02T19:39:20.366Z,16.96
2018-05-02T19:42:06.040Z,16.89
2018-05-02T19:44:34.226Z,16.82
2018-05-02T19:47:02.403Z,16.78
2018-05-02T19:49:30.587Z,16.75
2018-05-02T19:52:23.709Z,16.64
2018-05-02T19:54:52.173Z,16.53
2018-05-02T19:57:20.341Z,16.48
2018-05-02T19:59:48.479Z,16.42
2018-05-02T20:02:35.779Z,16.15
2018-05-02T20:05:03.955Z,16.12
2018-05-02T20:07:41.617Z,16.19
2018-05-02T20:10:34.767Z,16.20
2018-05-02T20:13:30.983Z,16.07
2018-05-02T20:15:59.132Z,16.18
2018-05-02T20:18:27.326Z,16.23
2018-05-02T20:20:55.476Z,16.24
2018-05-02T20:23:23.657Z,16.16
2018-05-02T20:25:51.817Z,16.17
2018-05-02T20:28:19.980Z,16.22
2018-05-02T20:30:49.572Z,16.06
2018-05-02T20:33:17.661Z,16.02
2018-05-02T20:35:45.857Z,16.14
2018-05-02T20:38:14.042Z,16.17
2018-05-02T20:40:42.187Z,16.15
2018-05-02T20:43:10.354Z,16.17
2018-05-02T20:45:38.528Z,16.12
2018-05-02T20:48:06.719Z,16.12
2018-05-02T20:50:34.891Z,16.09
2018-05-02T20:53:03.052Z,15.95
2018-05-02T20:55:31.245Z,16.00
2018-05-02T20:57:59.394Z,15.97
2018-05-02T21:00:27.550Z,16.02
2018-05-02T21:02:55.717Z,15.81
2018-05-02T21:05:24.304Z,15.79
2018-05-02T21:07:52.460Z,15.89
2018-05-02T21:10:20.633Z,15.90
2018-05-02T21:12:48.862Z,15.92
2018-05-02T21:15:17.003Z,15.88
2018-05-02T21:17:45.168Z,15.92
2018-05-02T21:20:13.327Z,15.76
2018-05-02T21:22:41.496Z,15.67
2018-05-02T21:25:10.035Z,15.62
2018-05-02T21:27:38.094Z,15.62
2018-05-02T21:30:06.267Z,15.67
2018-05-02T21:32:35.368Z,15.71
2018-05-02T21:35:03.548Z,15.71
2018-05-02T21:37:31.662Z,15.70
2018-05-02T21:39:59.845Z,15.48
2018-05-02T21:42:28.010Z,15.45
2018-05-02T21:44:56.184Z,15.37
2018-05-02T21:47:24.324Z,14.94
2018-05-02T21:49:52.495Z,15.13
2018-05-02T21:52:20.668Z,15.11
2018-05-02T21:54:48.934Z,15.01
2018-05-02T21:57:17.152Z,14.73
2018-05-02T21:59:45.382Z,14.81
2018-05-02T22:02:13.478Z,14.72
2018-05-02T22:04:41.673Z,14.80
2018-05-02T22:07:09.841Z,14.81
2018-05-02T22:09:38.033Z,14.69
2018-05-02T22:12:06.215Z,14.71
2018-05-02T22:14:34.415Z,14.78
2018-05-02T22:17:02.596Z,14.79
2018-05-02T22:19:30.775Z,14.72
2018-05-02T22:21:58.927Z,14.70
2018-05-02T22:24:27.110Z,14.67
2018-05-02T22:26:55.301Z,14.73
2018-05-02T22:29:23.457Z,14.65
2018-05-02T22:31:51.643Z,14.67
2018-05-02T22:34:19.789Z,14.76
2018-05-02T22:36:47.967Z,14.75
2018-05-02T22:39:16.156Z,14.60
2018-05-02T22:41:44.342Z,14.69
2018-05-02T22:44:12.520Z,14.52
2018-05-02T22:46:40.703Z,14.64
2018-05-02T22:49:08.870Z,14.71
2018-05-02T22:51:37.068Z,14.68
2018-05-02T22:54:05.276Z,14.53
2018-05-02T22:56:33.492Z,14.61
2018-05-02T22:59:01.688Z,14.69
2018-05-02T23:01:29.861Z,14.61
2018-05-02T23:03:58.064Z,14.68
2018-05-02T23:06:26.258Z,14.62
2018-05-02T23:08:55.262Z,14.41
2018-05-02T23:11:23.447Z,14.32
2018-05-02T23:13:51.876Z,14.55
2018-05-02T23:16:20.031Z,14.46
2018-05-02T23:18:48.360Z,14.58
2018-05-02T23:21:16.534Z,14.60
2018-05-02T23:23:45.114Z,14.54
2018-05-02T23:26:13.263Z,14.57
2018-05-02T23:28:41.463Z,14.65
2018-05-02T23:31:09.629Z,14.58
2018-05-02T23:33:37.869Z,14.54
2018-05-02T23:36:05.994Z,14.61
2018-05-02T23:38:34.206Z,14.56
2018-05-02T23:41:02.416Z,14.58
2018-05-02T23:43:30.614Z,14.33
2018-05-02T23:45:58.780Z,14.52
2018-05-02T23:48:26.952Z,14.36
2018-05-02T23:50:55.150Z,14.34
2018-05-02T23:53:23.300Z,14.25
2018-05-02T23:55:51.471Z,14.30
2018-05-02T23:58:19.624Z,14.30
